Terminal Aerodrome Forecast
Issued by NWS Jackson, MS

Home | Current Version | Previous Version | Text Only | Print | Product List | Glossary On
Versions: 1 2 3 4 5 6 7 8 9 10 11 12 13 14 15 16
000
FTUS44 KJAN 132300
TAFHBG
TAF
KHBG 132340Z 1400/1424 00000KT P6SM VCSH SCT040
     FM140200 00000KT P6SM FEW050
     FM140800 00000KT 5SM BR SKC
     FM141000 00000KT 3SM BR SKC
     FM141400 22006KT P6SM SCT025=

USA.gov is the U.S. government's official web portal to all federal, state and local government web resources and services.